Garfield, Kentucky
Current Conditions -  °F | °C
As of 2:55 PM on Sunday 23 Nov 2014 (Local Time) from KFTK Reporting Station
Light Rain Light Rain  
Wind Chill: 52°   Ceiling: 700
Heat Index: 52°   Visibility: 4mi
Dew Point: 51°   Wind: 13mph
Humidity: 94%   Direction: 110°ESE
Pressure: 29.52"   Gusts: NA
Location:  37.78°N, 86.36°W
Report Text: KFTK 232055Z COR 11011KT 4SM -RA BR BKN007 OVC015 11/10 A2952 RMK AO2A PRESFR SLP996 P0001 60009 T01120103 56063
Loading
Personal Weather Stations






























Interactive Weather Map New forecast layout! Learn more

10-Day Weather Forecast

Advertisements
Track Severe Weather on mobile